sensor_id;sensor_type;location;lat;lon;timestamp;pressure;altitude;pressure_sealevel;temperature;humidity
51417;BME280;50158;51.528;6.982;2022-12-24T00:00:23;67580;;;11.17;100
51417;BME280;50158;51.528;6.982;2022-12-24T00:02:23;67620;;;11.54;100
51417;BME280;50158;51.528;6.982;2022-12-24T00:03:23;67590;;;11.29;100
51417;BME280;50158;51.528;6.982;2022-12-24T00:04:23;67590;;;11.28;100
51417;BME280;50158;51.528;6.982;2022-12-24T00:05:25;67580;;;11.22;100
51417;BME280;50158;51.528;6.982;2022-12-24T00:06:23;67590;;;11.26;100
51417;BME280;50158;51.528;6.982;2022-12-24T00:07:23;67590;;;11.3;100
51417;BME280;50158;51.528;6.982;2022-12-24T00:08:23;67600;;;11.38;100
51417;BME280;50158;51.528;6.982;2022-12-24T00:09:23;67620;;;11.57;100
51417;BME280;50158;51.528;6.982;2022-12-24T00:10:23;67680;;;12.15;100
51417;BME280;50158;51.528;6.982;2022-12-24T00:11:23;67640;;;11.78;100
51417;BME280;50158;51.528;6.982;2022-12-24T00:12:23;67610;;;11.45;100
51417;BME280;50158;51.528;6.982;2022-12-24T00:13:23;67600;;;11.36;100
51417;BME280;50158;51.528;6.982;2022-12-24T00:14:24;67600;;;11.4;100
51417;BME280;50158;51.528;6.982;2022-12-24T00:15:23;67600;;;11.37;100
51417;BME280;50158;51.528;6.982;2022-12-24T00:16:23;67590;;;11.26;100
51417;BME280;50158;51.528;6.982;2022-12-24T00:17:23;67590;;;11.24;100
51417;BME280;50158;51.528;6.982;2022-12-24T00:18:23;67600;;;11.32;100
51417;BME280;50158;51.528;6.982;2022-12-24T00:19:23;67590;;;11.3;100
51417;BME280;50158;51.528;6.982;2022-12-24T00:20:23;67600;;;11.38;100
51417;BME280;50158;51.528;6.982;2022-12-24T00:21:23;67590;;;11.27;100
51417;BME280;50158;51.528;6.982;2022-12-24T00:22:23;67590;;;11.29;100
51417;BME280;50158;51.528;6.982;2022-12-24T00:23:24;67590;;;11.3;100
51417;BME280;50158;51.528;6.982;2022-12-24T00:24:24;67590;;;11.31;100
51417;BME280;50158;51.528;6.982;2022-12-24T00:25:23;67600;;;11.33;100
51417;BME280;50158;51.528;6.982;2022-12-24T00:26:23;67590;;;11.31;100
51417;BME280;50158;51.528;6.982;2022-12-24T00:27:23;67590;;;11.27;100
51417;BME280;50158;51.528;6.982;2022-12-24T00:28:23;67590;;;11.33;100
51417;BME280;50158;51.528;6.982;2022-12-24T00:29:23;67600;;;11.33;100
51417;BME280;50158;51.528;6.982;2022-12-24T00:30:23;67590;;;11.31;100
51417;BME280;50158;51.528;6.982;2022-12-24T00:31:24;67600;;;11.37;100
51417;BME280;50158;51.528;6.982;2022-12-24T00:32:23;67600;;;11.41;100
51417;BME280;50158;51.528;6.982;2022-12-24T00:33:23;67610;;;11.43;100
51417;BME280;50158;51.528;6.982;2022-12-24T00:34:23;67610;;;11.41;100
51417;BME280;50158;51.528;6.982;2022-12-24T00:35:17;67610;;;11.43;100
51417;BME280;50158;51.528;6.982;2022-12-24T00:36:23;67600;;;11.34;100
51417;BME280;50158;51.528;6.982;2022-12-24T00:37:23;67600;;;11.4;100
51417;BME280;50158;51.528;6.982;2022-12-24T00:38:23;67590;;;11.31;100
51417;BME280;50158;51.528;6.982;2022-12-24T00:39:23;67610;;;11.49;100
51417;BME280;50158;51.528;6.982;2022-12-24T00:40:23;67610;;;11.48;100
51417;BME280;50158;51.528;6.982;2022-12-24T00:41:23;67620;;;11.57;100
51417;BME280;50158;51.528;6.982;2022-12-24T00:42:23;67600;;;11.33;100
51417;BME280;50158;51.528;6.982;2022-12-24T00:43:23;67590;;;11.28;100
51417;BME280;50158;51.528;6.982;2022-12-24T00:44:23;67600;;;11.36;100
51417;BME280;50158;51.528;6.982;2022-12-24T00:45:23;67600;;;11.41;100
51417;BME280;50158;51.528;6.982;2022-12-24T00:46:24;67610;;;11.46;100
51417;BME280;50158;51.528;6.982;2022-12-24T00:47:23;67610;;;11.49;100
51417;BME280;50158;51.528;6.982;2022-12-24T00:48:23;67610;;;11.42;100
51417;BME280;50158;51.528;6.982;2022-12-24T00:49:23;67600;;;11.38;100
51417;BME280;50158;51.528;6.982;2022-12-24T00:50:23;67610;;;11.49;100
51417;BME280;50158;51.528;6.982;2022-12-24T00:51:24;67610;;;11.43;100
51417;BME280;50158;51.528;6.982;2022-12-24T00:52:23;67600;;;11.37;100
51417;BME280;50158;51.528;6.982;2022-12-24T00:53:23;67590;;;11.28;100
51417;BME280;50158;51.528;6.982;2022-12-24T00:54:23;67590;;;11.31;100
51417;BME280;50158;51.528;6.982;2022-12-24T00:55:23;67590;;;11.3;100
51417;BME280;50158;51.528;6.982;2022-12-24T00:56:24;67590;;;11.32;100
51417;BME280;50158;51.528;6.982;2022-12-24T00:57:23;67610;;;11.42;100
51417;BME280;50158;51.528;6.982;2022-12-24T00:58:23;67600;;;11.39;100
51417;BME280;50158;51.528;6.982;2022-12-24T00:59:23;67590;;;11.27;100
51417;BME280;50158;51.528;6.982;2022-12-24T01:00:23;67600;;;11.4;100
51417;BME280;50158;51.528;6.982;2022-12-24T01:01:24;67610;;;11.42;100
51417;BME280;50158;51.528;6.982;2022-12-24T01:02:23;67610;;;11.49;100
51417;BME280;50158;51.528;6.982;2022-12-24T01:03:23;67600;;;11.41;100
51417;BME280;50158;51.528;6.982;2022-12-24T01:04:23;67610;;;11.5;100
51417;BME280;50158;51.528;6.982;2022-12-24T01:05:23;67610;;;11.47;100
51417;BME280;50158;51.528;6.982;2022-12-24T01:06:23;67610;;;11.43;100
51417;BME280;50158;51.528;6.982;2022-12-24T01:07:23;67620;;;11.56;100
51417;BME280;50158;51.528;6.982;2022-12-24T01:08:23;67600;;;11.41;100
51417;BME280;50158;51.528;6.982;2022-12-24T01:09:23;67590;;;11.26;100
51417;BME280;50158;51.528;6.982;2022-12-24T01:10:23;67590;;;11.28;100
51417;BME280;50158;51.528;6.982;2022-12-24T01:11:23;67590;;;11.24;100
51417;BME280;50158;51.528;6.982;2022-12-24T01:12:23;67710;;;12.37;100
51417;BME280;50158;51.528;6.982;2022-12-24T01:13:24;67650;;;11.82;100
51417;BME280;50158;51.528;6.982;2022-12-24T01:14:23;67620;;;11.58;100
51417;BME280;50158;51.528;6.982;2022-12-24T01:15:23;67610;;;11.47;100
51417;BME280;50158;51.528;6.982;2022-12-24T01:16:23;67580;;;11.15;100
51417;BME280;50158;51.528;6.982;2022-12-24T01:17:42;67570;;;11.07;100
51417;BME280;50158;51.528;6.982;2022-12-24T01:18:56;67570;;;11.05;100
51417;BME280;50158;51.528;6.982;2022-12-24T01:20:12;67560;;;11.02;100
51417;BME280;50158;51.528;6.982;2022-12-24T01:21:24;67550;;;10.92;100
51417;BME280;50158;51.528;6.982;2022-12-24T01:22:38;67570;;;11.04;100
51417;BME280;50158;51.528;6.982;2022-12-24T01:23:17;67570;;;11.12;100
51417;BME280;50158;51.528;6.982;2022-12-24T01:23:57;67570;;;11.07;100
51417;BME280;50158;51.528;6.982;2022-12-24T01:24:37;67550;;;10.88;100
51417;BME280;50158;51.528;6.982;2022-12-24T01:25:23;67550;;;10.94;100
51417;BME280;50158;51.528;6.982;2022-12-24T01:26:23;67560;;;10.99;100
51417;BME280;50158;51.528;6.982;2022-12-24T01:27:23;67550;;;10.93;100
51417;BME280;50158;51.528;6.982;2022-12-24T01:28:23;67550;;;10.9;100
51417;BME280;50158;51.528;6.982;2022-12-24T01:29:23;67550;;;10.94;100
51417;BME280;50158;51.528;6.982;2022-12-24T01:30:23;67560;;;10.96;100
51417;BME280;50158;51.528;6.982;2022-12-24T01:31:23;67550;;;10.87;100
51417;BME280;50158;51.528;6.982;2022-12-24T01:32:23;67560;;;10.95;100
51417;BME280;50158;51.528;6.982;2022-12-24T01:33:26;67560;;;11.03;100
51417;BME280;50158;51.528;6.982;2022-12-24T01:34:23;67550;;;10.91;100
51417;BME280;50158;51.528;6.982;2022-12-24T01:35:23;67550;;;10.86;100
51417;BME280;50158;51.528;6.982;2022-12-24T01:36:23;67550;;;10.87;100
51417;BME280;50158;51.528;6.982;2022-12-24T01:37:23;67560;;;10.99;100
51417;BME280;50158;51.528;6.982;2022-12-24T01:38:23;67560;;;10.98;100
51417;BME280;50158;51.528;6.982;2022-12-24T01:39:23;67550;;;10.94;100
51417;BME280;50158;51.528;6.982;2022-12-24T01:40:24;67540;;;10.84;100
51417;BME280;50158;51.528;6.982;2022-12-24T01:41:24;67540;;;10.85;100
51417;BME280;50158;51.528;6.982;2022-12-24T01:42:23;67550;;;10.87;100
51417;BME280;50158;51.528;6.982;2022-12-24T01:44:26;67560;;;11.04;100
51417;BME280;50158;51.528;6.982;2022-12-24T01:45:41;67560;;;11.01;100
51417;BME280;50158;51.528;6.982;2022-12-24T01:46:25;67550;;;10.87;100
51417;BME280;50158;51.528;6.982;2022-12-24T01:47:24;67540;;;10.86;100
51417;BME280;50158;51.528;6.982;2022-12-24T01:48:27;67550;;;10.88;100
51417;BME280;50158;51.528;6.982;2022-12-24T01:49:23;67540;;;10.8;100
51417;BME280;50158;51.528;6.982;2022-12-24T01:50:23;67530;;;10.72;100
51417;BME280;50158;51.528;6.982;2022-12-24T01:51:29;67530;;;10.68;100
51417;BME280;50158;51.528;6.982;2022-12-24T01:52:25;67530;;;10.72;100
51417;BME280;50158;51.528;6.982;2022-12-24T01:53:23;67540;;;10.76;100
51417;BME280;50158;51.528;6.982;2022-12-24T01:54:25;67540;;;10.8;100
51417;BME280;50158;51.528;6.982;2022-12-24T01:55:23;67530;;;10.7;100
51417;BME280;50158;51.528;6.982;2022-12-24T01:56:23;67530;;;10.75;100
51417;BME280;50158;51.528;6.982;2022-12-24T01:57:25;67530;;;10.71;100
51417;BME280;50158;51.528;6.982;2022-12-24T01:58:23;67540;;;10.78;100
51417;BME280;50158;51.528;6.982;2022-12-24T01:59:23;67540;;;10.78;100
51417;BME280;50158;51.528;6.982;2022-12-24T02:00:23;67530;;;10.73;100
51417;BME280;50158;51.528;6.982;2022-12-24T02:01:23;67540;;;10.78;100
51417;BME280;50158;51.528;6.982;2022-12-24T02:02:24;67540;;;10.82;100
51417;BME280;50158;51.528;6.982;2022-12-24T02:03:23;67530;;;10.73;100
51417;BME280;50158;51.528;6.982;2022-12-24T02:04:26;67540;;;10.79;100
51417;BME280;50158;51.528;6.982;2022-12-24T02:05:33;67530;;;10.74;100
51417;BME280;50158;51.528;6.982;2022-12-24T02:06:23;67520;;;10.67;100
51417;BME280;50158;51.528;6.982;2022-12-24T02:07:23;67530;;;10.74;100
51417;BME280;50158;51.528;6.982;2022-12-24T02:08:23;67530;;;10.73;100
51417;BME280;50158;51.528;6.982;2022-12-24T02:09:23;67530;;;10.69;100
51417;BME280;50158;51.528;6.982;2022-12-24T02:10:23;67530;;;10.72;100
51417;BME280;50158;51.528;6.982;2022-12-24T02:11:24;67530;;;10.74;100
51417;BME280;50158;51.528;6.982;2022-12-24T02:13:23;67520;;;10.67;100
51417;BME280;50158;51.528;6.982;2022-12-24T02:14:24;67520;;;10.62;100
51417;BME280;50158;51.528;6.982;2022-12-24T02:15:23;67530;;;10.68;100
51417;BME280;50158;51.528;6.982;2022-12-24T02:16:34;67530;;;10.75;100
51417;BME280;50158;51.528;6.982;2022-12-24T02:17:26;67520;;;10.63;100
51417;BME280;50158;51.528;6.982;2022-12-24T02:18:33;67520;;;10.62;100
51417;BME280;50158;51.528;6.982;2022-12-24T02:19:32;67520;;;10.59;100
51417;BME280;50158;51.528;6.982;2022-12-24T02:20:29;67520;;;10.67;100
51417;BME280;50158;51.528;6.982;2022-12-24T02:21:29;67530;;;10.7;100
51417;BME280;50158;51.528;6.982;2022-12-24T02:22:36;67520;;;10.61;100
51417;BME280;50158;51.528;6.982;2022-12-24T02:23:42;67520;;;10.62;100
51417;BME280;50158;51.528;6.982;2022-12-24T02:24:35;67520;;;10.6;100
51417;BME280;50158;51.528;6.982;2022-12-24T02:26:45;67510;;;10.56;100
51417;BME280;50158;51.528;6.982;2022-12-24T02:27:50;67520;;;10.65;100
51417;BME280;50158;51.528;6.982;2022-12-24T02:29:06;67530;;;10.67;100
51417;BME280;50158;51.528;6.982;2022-12-24T02:30:13;67530;;;10.73;100
51417;BME280;50158;51.528;6.982;2022-12-24T02:31:10;67530;;;10.7;100
51417;BME280;50158;51.528;6.982;2022-12-24T02:32:24;67530;;;10.73;100
51417;BME280;50158;51.528;6.982;2022-12-24T02:33:37;67530;;;10.7;100
51417;BME280;50158;51.528;6.982;2022-12-24T02:34:35;67520;;;10.63;100
51417;BME280;50158;51.528;6.982;2022-12-24T02:37:30;67510;;;10.51;100
51417;BME280;50158;51.528;6.982;2022-12-24T02:38:36;67500;;;10.45;100
51417;BME280;50158;51.528;6.982;2022-12-24T02:39:45;67510;;;10.54;100
51417;BME280;50158;51.528;6.982;2022-12-24T02:41:29;67520;;;10.59;100
51417;BME280;50158;51.528;6.982;2022-12-24T02:41:32;67510;;;10.56;100
51417;BME280;50158;51.528;6.982;2022-12-24T02:42:48;67510;;;10.56;100
51417;BME280;50158;51.528;6.982;2022-12-24T02:44:19;67490;;;10.34;100
51417;BME280;50158;51.528;6.982;2022-12-24T02:45:01;67480;;;10.27;100
51417;BME280;50158;51.528;6.982;2022-12-24T02:45:17;67490;;;10.39;100
51417;BME280;50158;51.528;6.982;2022-12-24T02:45:36;67520;;;10.65;100
51417;BME280;50158;51.528;6.982;2022-12-24T02:46:34;67490;;;10.32;100
51417;BME280;50158;51.528;6.982;2022-12-24T02:47:11;67480;;;10.27;100
51417;BME280;50158;51.528;6.982;2022-12-24T02:47:48;67480;;;10.28;100
51417;BME280;50158;51.528;6.982;2022-12-24T02:48:27;67490;;;10.33;100
51417;BME280;50158;51.528;6.982;2022-12-24T02:49:23;67490;;;10.32;100
51417;BME280;50158;51.528;6.982;2022-12-24T02:50:24;67490;;;10.35;100
51417;BME280;50158;51.528;6.982;2022-12-24T02:51:23;67500;;;10.39;100
51417;BME280;50158;51.528;6.982;2022-12-24T02:52:27;67500;;;10.47;100
51417;BME280;50158;51.528;6.982;2022-12-24T02:53:23;67500;;;10.47;100
51417;BME280;50158;51.528;6.982;2022-12-24T02:54:23;67500;;;10.45;100
51417;BME280;50158;51.528;6.982;2022-12-24T02:56:30;67510;;;10.53;100
51417;BME280;50158;51.528;6.982;2022-12-24T02:57:27;67500;;;10.44;100
51417;BME280;50158;51.528;6.982;2022-12-24T02:58:31;67510;;;10.52;100
51417;BME280;50158;51.528;6.982;2022-12-24T02:59:58;67510;;;10.56;100
51417;BME280;50158;51.528;6.982;2022-12-24T03:01:39;67510;;;10.56;100
51417;BME280;50158;51.528;6.982;2022-12-24T03:03:33;67500;;;10.46;100
51417;BME280;50158;51.528;6.982;2022-12-24T03:04:49;67510;;;10.49;100
51417;BME280;50158;51.528;6.982;2022-12-24T03:06:00;67530;;;10.67;100
51417;BME280;50158;51.528;6.982;2022-12-24T03:07:16;67500;;;10.47;100
51417;BME280;50158;51.528;6.982;2022-12-24T03:08:35;67510;;;10.55;100
51417;BME280;50158;51.528;6.982;2022-12-24T03:09:47;67510;;;10.54;100
51417;BME280;50158;51.528;6.982;2022-12-24T03:10:56;67500;;;10.42;100
51417;BME280;50158;51.528;6.982;2022-12-24T03:12:11;67490;;;10.38;100
51417;BME280;50158;51.528;6.982;2022-12-24T03:14:00;67510;;;10.55;100
51417;BME280;50158;51.528;6.982;2022-12-24T03:15:52;67490;;;10.34;100
51417;BME280;50158;51.528;6.982;2022-12-24T03:17:06;67500;;;10.43;100
51417;BME280;50158;51.528;6.982;2022-12-24T03:18:57;67500;;;10.42;100
51417;BME280;50158;51.528;6.982;2022-12-24T03:20:11;67490;;;10.34;100
51417;BME280;50158;51.528;6.982;2022-12-24T03:22:03;67510;;;10.56;100
51417;BME280;50158;51.528;6.982;2022-12-24T03:23:54;67520;;;10.59;100
51417;BME280;50158;51.528;6.982;2022-12-24T03:25:08;67510;;;10.53;100
51417;BME280;50158;51.528;6.982;2022-12-24T03:26:59;67490;;;10.37;100
51417;BME280;50158;51.528;6.982;2022-12-24T03:28:54;67490;;;10.38;100
51417;BME280;50158;51.528;6.982;2022-12-24T03:30:10;67500;;;10.44;100
51417;BME280;50158;51.528;6.982;2022-12-24T03:31:22;67510;;;10.58;100
51417;BME280;50158;51.528;6.982;2022-12-24T03:32:00;67500;;;10.45;100
51417;BME280;50158;51.528;6.982;2022-12-24T03:33:14;67510;;;10.51;100
51417;BME280;50158;51.528;6.982;2022-12-24T03:33:51;67520;;;10.61;100
51417;BME280;50158;51.528;6.982;2022-12-24T03:35:05;67590;;;11.28;100
51417;BME280;50158;51.528;6.982;2022-12-24T03:36:19;67550;;;10.9;100
51417;BME280;50158;51.528;6.982;2022-12-24T03:36:56;67590;;;11.29;100
51417;BME280;50158;51.528;6.982;2022-12-24T03:38:10;67530;;;10.73;100
51417;BME280;50158;51.528;6.982;2022-12-24T03:39:24;67520;;;10.64;100
51417;BME280;50158;51.528;6.982;2022-12-24T03:40:02;67510;;;10.58;100
51417;BME280;50158;51.528;6.982;2022-12-24T03:41:15;67520;;;10.59;100
51417;BME280;50158;51.528;6.982;2022-12-24T03:41:52;67530;;;10.68;100
51417;BME280;50158;51.528;6.982;2022-12-24T03:43:06;67510;;;10.55;100
51417;BME280;50158;51.528;6.982;2022-12-24T03:44:21;67510;;;10.57;100
51417;BME280;50158;51.528;6.982;2022-12-24T03:44:58;67510;;;10.52;100
51417;BME280;50158;51.528;6.982;2022-12-24T03:46:12;67500;;;10.46;100
51417;BME280;50158;51.528;6.982;2022-12-24T03:47:59;67510;;;10.52;100
51417;BME280;50158;51.528;6.982;2022-12-24T03:49:13;67510;;;10.57;100
51417;BME280;50158;51.528;6.982;2022-12-24T03:49:50;67510;;;10.51;100
51417;BME280;50158;51.528;6.982;2022-12-24T03:51:04;67510;;;10.49;100
51417;BME280;50158;51.528;6.982;2022-12-24T03:52:18;67500;;;10.46;100
51417;BME280;50158;51.528;6.982;2022-12-24T03:52:55;67510;;;10.48;100
51417;BME280;50158;51.528;6.982;2022-12-24T03:54:09;67500;;;10.46;100
51417;BME280;50158;51.528;6.982;2022-12-24T03:55:24;67520;;;10.59;100
51417;BME280;50158;51.528;6.982;2022-12-24T03:56:01;67510;;;10.5;100
51417;BME280;50158;51.528;6.982;2022-12-24T03:57:15;67520;;;10.62;100
51417;BME280;50158;51.528;6.982;2022-12-24T03:57:52;67530;;;10.74;100
51417;BME280;50158;51.528;6.982;2022-12-24T03:59:06;67530;;;10.67;100
51417;BME280;50158;51.528;6.982;2022-12-24T04:00:20;67540;;;10.85;100
51417;BME280;50158;51.528;6.982;2022-12-24T04:00:57;67530;;;10.73;100
51417;BME280;50158;51.528;6.982;2022-12-24T04:02:11;67530;;;10.71;100
51417;BME280;50158;51.528;6.982;2022-12-24T04:03:25;67530;;;10.72;100
51417;BME280;50158;51.528;6.982;2022-12-24T04:04:02;67510;;;10.51;100
51417;BME280;50158;51.528;6.982;2022-12-24T04:05:17;67510;;;10.55;100
51417;BME280;50158;51.528;6.982;2022-12-24T04:06:02;67520;;;10.63;100
51417;BME280;50158;51.528;6.982;2022-12-24T04:07:08;67510;;;10.52;100
51417;BME280;50158;51.528;6.982;2022-12-24T04:08:22;67500;;;10.41;100
51417;BME280;50158;51.528;6.982;2022-12-24T04:08:59;67500;;;10.43;100
51417;BME280;50158;51.528;6.982;2022-12-24T04:10:14;67490;;;10.37;100
51417;BME280;50158;51.528;6.982;2022-12-24T04:10:50;67500;;;10.43;100
51417;BME280;50158;51.528;6.982;2022-12-24T04:12:04;67490;;;10.32;100
51417;BME280;50158;51.528;6.982;2022-12-24T04:13:18;67490;;;10.36;100
51417;BME280;50158;51.528;6.982;2022-12-24T04:13:55;67500;;;10.45;100
51417;BME280;50158;51.528;6.982;2022-12-24T04:15:10;67500;;;10.42;100
51417;BME280;50158;51.528;6.982;2022-12-24T04:16:24;67480;;;10.27;100
51417;BME280;50158;51.528;6.982;2022-12-24T04:17:01;67500;;;10.4;100
51417;BME280;50158;51.528;6.982;2022-12-24T04:18:15;67490;;;10.37;100
51417;BME280;50158;51.528;6.982;2022-12-24T04:18:52;67490;;;10.31;100
51417;BME280;50158;51.528;6.982;2022-12-24T04:20:06;67500;;;10.43;100
51417;BME280;50158;51.528;6.982;2022-12-24T04:21:20;67480;;;10.3;100
51417;BME280;50158;51.528;6.982;2022-12-24T04:21:57;67490;;;10.35;100
51417;BME280;50158;51.528;6.982;2022-12-24T04:23:12;67490;;;10.38;100
51417;BME280;50158;51.528;6.982;2022-12-24T04:24:25;67480;;;10.27;100
51417;BME280;50158;51.528;6.982;2022-12-24T04:25:03;67500;;;10.43;100
51417;BME280;50158;51.528;6.982;2022-12-24T04:26:17;67480;;;10.21;100
51417;BME280;50158;51.528;6.982;2022-12-24T04:26:54;67470;;;10.18;100
51417;BME280;50158;51.528;6.982;2022-12-24T04:28:08;67490;;;10.37;100
51417;BME280;50158;51.528;6.982;2022-12-24T04:29:22;67500;;;10.42;100
51417;BME280;50158;51.528;6.982;2022-12-24T04:29:59;67500;;;10.47;100
51417;BME280;50158;51.528;6.982;2022-12-24T04:31:14;67490;;;10.37;100
51417;BME280;50158;51.528;6.982;2022-12-24T04:31:50;67490;;;10.35;100
51417;BME280;50158;51.528;6.982;2022-12-24T04:33:04;67500;;;10.42;100
51417;BME280;50158;51.528;6.982;2022-12-24T04:34:18;67500;;;10.47;100
51417;BME280;50158;51.528;6.982;2022-12-24T04:34:56;67490;;;10.32;100
51417;BME280;50158;51.528;6.982;2022-12-24T04:36:11;67490;;;10.35;100
51417;BME280;50158;51.528;6.982;2022-12-24T04:37:24;67490;;;10.32;100
51417;BME280;50158;51.528;6.982;2022-12-24T04:38:01;67490;;;10.33;100
51417;BME280;50158;51.528;6.982;2022-12-24T04:39:15;67500;;;10.46;100
51417;BME280;50158;51.528;6.982;2022-12-24T04:39:52;67490;;;10.39;100
51417;BME280;50158;51.528;6.982;2022-12-24T04:41:07;67510;;;10.5;100
51417;BME280;50158;51.528;6.982;2022-12-24T04:42:20;67510;;;10.49;100
51417;BME280;50158;51.528;6.982;2022-12-24T04:42:57;67510;;;10.59;100
51417;BME280;50158;51.528;6.982;2022-12-24T04:44:12;67510;;;10.55;100
51417;BME280;50158;51.528;6.982;2022-12-24T04:45:26;67500;;;10.39;100
51417;BME280;50158;51.528;6.982;2022-12-24T04:46:05;67500;;;10.42;100
51417;BME280;50158;51.528;6.982;2022-12-24T04:47:17;67490;;;10.38;100
51417;BME280;50158;51.528;6.982;2022-12-24T04:47:54;67490;;;10.34;100
51417;BME280;50158;51.528;6.982;2022-12-24T04:49:09;67500;;;10.41;100
51417;BME280;50158;51.528;6.982;2022-12-24T04:50:22;67480;;;10.3;100
51417;BME280;50158;51.528;6.982;2022-12-24T04:51:00;67500;;;10.47;100
51417;BME280;50158;51.528;6.982;2022-12-24T04:52:13;67480;;;10.3;100
51417;BME280;50158;51.528;6.982;2022-12-24T04:52:50;67490;;;10.34;100
51417;BME280;50158;51.528;6.982;2022-12-24T04:54:04;67480;;;10.28;100
51417;BME280;50158;51.528;6.982;2022-12-24T04:55:19;67480;;;10.22;100
51417;BME280;50158;51.528;6.982;2022-12-24T04:55:56;67480;;;10.21;100
51417;BME280;50158;51.528;6.982;2022-12-24T04:57:10;67490;;;10.34;100
51417;BME280;50158;51.528;6.982;2022-12-24T04:58:24;67500;;;10.41;100
51417;BME280;50158;51.528;6.982;2022-12-24T05:00:07;67500;;;10.43;100
51417;BME280;50158;51.528;6.982;2022-12-24T05:00:44;67500;;;10.41;100
51417;BME280;50158;51.528;6.982;2022-12-24T05:01:58;67500;;;10.43;100
51417;BME280;50158;51.528;6.982;2022-12-24T05:03:49;67490;;;10.35;100
51417;BME280;50158;51.528;6.982;2022-12-24T05:09:39;67520;;;10.61;100
51417;BME280;50158;51.528;6.982;2022-12-24T05:10:16;67510;;;10.52;100
51417;BME280;50158;51.528;6.982;2022-12-24T05:11:30;67500;;;10.41;100
51417;BME280;50158;51.528;6.982;2022-12-24T05:12:44;67530;;;10.7;100
51417;BME280;50158;51.528;6.982;2022-12-24T05:17:41;67470;;;10.2;100
51417;BME280;50158;51.528;6.982;2022-12-24T05:22:37;67470;;;10.14;100
51417;BME280;50158;51.528;6.982;2022-12-24T05:23:52;67600;;;11.41;100
51417;BME280;50158;51.528;6.982;2022-12-24T05:26:26;67480;;;10.22;100
51417;BME280;50158;51.528;6.982;2022-12-24T05:30:39;67480;;;10.29;100
51417;BME280;50158;51.528;6.982;2022-12-24T05:41:46;67460;;;10.1;100
51417;BME280;50158;51.528;6.982;2022-12-24T05:46:43;67470;;;10.16;100
51417;BME280;50158;51.528;6.982;2022-12-24T05:52:16;67460;;;10.1;100
51417;BME280;50158;51.528;6.982;2022-12-24T05:52:54;67480;;;10.27;100
51417;BME280;50158;51.528;6.982;2022-12-24T05:54:08;67470;;;10.13;100
51417;BME280;50158;51.528;6.982;2022-12-24T05:55:22;67460;;;10.07;100
51417;BME280;50158;51.528;6.982;2022-12-24T05:56:07;67460;;;10.1;100
51417;BME280;50158;51.528;6.982;2022-12-24T05:57:13;67470;;;10.2;100
51417;BME280;50158;51.528;6.982;2022-12-24T05:57:50;67470;;;10.13;100
51417;BME280;50158;51.528;6.982;2022-12-24T05:59:04;67470;;;10.16;100
51417;BME280;50158;51.528;6.982;2022-12-24T06:00:18;67470;;;10.16;100
51417;BME280;50158;51.528;6.982;2022-12-24T06:00:55;67470;;;10.16;100
51417;BME280;50158;51.528;6.982;2022-12-24T06:02:09;67470;;;10.18;100
51417;BME280;50158;51.528;6.982;2022-12-24T06:03:24;67470;;;10.18;100
51417;BME280;50158;51.528;6.982;2022-12-24T06:04:01;67480;;;10.24;100
51417;BME280;50158;51.528;6.982;2022-12-24T06:05:15;67490;;;10.3;100
51417;BME280;50158;51.528;6.982;2022-12-24T06:06:08;67480;;;10.27;100
51417;BME280;50158;51.528;6.982;2022-12-24T06:07:06;67470;;;10.17;100
51417;BME280;50158;51.528;6.982;2022-12-24T06:08:20;67480;;;10.26;100
51417;BME280;50158;51.528;6.982;2022-12-24T06:09:26;67490;;;10.34;100
51417;BME280;50158;51.528;6.982;2022-12-24T06:10:03;67480;;;10.22;100
51417;BME280;50158;51.528;6.982;2022-12-24T06:11:18;67480;;;10.26;100
51417;BME280;50158;51.528;6.982;2022-12-24T06:11:54;67480;;;10.25;100
51417;BME280;50158;51.528;6.982;2022-12-24T06:13:08;67480;;;10.3;100
51417;BME280;50158;51.528;6.982;2022-12-24T06:14:22;67480;;;10.26;100
51417;BME280;50158;51.528;6.982;2022-12-24T06:15:00;67480;;;10.28;100
51417;BME280;50158;51.528;6.982;2022-12-24T06:16:15;67470;;;10.22;100
51417;BME280;50158;51.528;6.982;2022-12-24T06:16:51;67480;;;10.27;100
51417;BME280;50158;51.528;6.982;2022-12-24T06:18:05;67470;;;10.18;100
51417;BME280;50158;51.528;6.982;2022-12-24T06:19:19;67470;;;10.17;100
51417;BME280;50158;51.528;6.982;2022-12-24T06:19:56;67470;;;10.21;100
51417;BME280;50158;51.528;6.982;2022-12-24T06:21:11;67480;;;10.22;100
51417;BME280;50158;51.528;6.982;2022-12-24T06:22:24;67480;;;10.25;100
51417;BME280;50158;51.528;6.982;2022-12-24T06:23:01;67480;;;10.25;100
51417;BME280;50158;51.528;6.982;2022-12-24T06:24:15;67480;;;10.26;100
51417;BME280;50158;51.528;6.982;2022-12-24T06:24:53;67480;;;10.24;100
51417;BME280;50158;51.528;6.982;2022-12-24T06:26:07;67480;;;10.24;100
51417;BME280;50158;51.528;6.982;2022-12-24T06:27:58;67480;;;10.28;100
51417;BME280;50158;51.528;6.982;2022-12-24T06:29:12;67480;;;10.26;100
51417;BME280;50158;51.528;6.982;2022-12-24T06:29:49;67490;;;10.32;100
51417;BME280;50158;51.528;6.982;2022-12-24T06:31:04;67480;;;10.22;100
51417;BME280;50158;51.528;6.982;2022-12-24T06:32:18;67490;;;10.39;100
51417;BME280;50158;51.528;6.982;2022-12-24T06:32:54;67490;;;10.34;100
51417;BME280;50158;51.528;6.982;2022-12-24T06:34:08;67480;;;10.26;100
51417;BME280;50158;51.528;6.982;2022-12-24T06:35:23;67490;;;10.36;100
51417;BME280;50158;51.528;6.982;2022-12-24T06:36:00;67480;;;10.28;100
51417;BME280;50158;51.528;6.982;2022-12-24T06:37:14;67490;;;10.39;100